sensor_id;sensor_type;location;lat;lon;timestamp;temperature;humidity
83466;DHT22;73393;51.946;20.140;2024-03-23T00:54:22;9.10;100.00
83466;DHT22;73393;51.946;20.140;2024-03-23T00:56:48;9.10;100.00
83466;DHT22;73393;51.946;20.140;2024-03-23T00:59:13;9.20;100.00
83466;DHT22;73393;51.946;20.140;2024-03-23T01:01:39;9.20;100.00
83466;DHT22;73393;51.946;20.140;2024-03-23T01:04:05;9.20;100.00
83466;DHT22;73393;51.946;20.140;2024-03-23T01:06:30;9.20;100.00
83466;DHT22;73393;51.946;20.140;2024-03-23T01:08:56;9.20;100.00
83466;DHT22;73393;51.946;20.140;2024-03-23T01:11:22;9.30;100.00
83466;DHT22;73393;51.946;20.140;2024-03-23T01:13:47;9.30;100.00
83466;DHT22;73393;51.946;20.140;2024-03-23T01:16:13;9.40;100.00
83466;DHT22;73393;51.946;20.140;2024-03-23T01:18:38;9.30;100.00
83466;DHT22;73393;51.946;20.140;2024-03-23T01:21:04;9.40;100.00
83466;DHT22;73393;51.946;20.140;2024-03-23T01:23:29;9.30;100.00
83466;DHT22;73393;51.946;20.140;2024-03-23T01:25:55;9.30;100.00
83466;DHT22;73393;51.946;20.140;2024-03-23T01:28:21;9.20;100.00
83466;DHT22;73393;51.946;20.140;2024-03-23T01:30:47;9.30;100.00
83466;DHT22;73393;51.946;20.140;2024-03-23T01:33:13;9.20;100.00
83466;DHT22;73393;51.946;20.140;2024-03-23T01:35:39;9.10;100.00
83466;DHT22;73393;51.946;20.140;2024-03-23T01:38:04;9.10;100.00
83466;DHT22;73393;51.946;20.140;2024-03-23T01:40:30;9.20;100.00
83466;DHT22;73393;51.946;20.140;2024-03-23T01:43:01;9.20;100.00
83466;DHT22;73393;51.946;20.140;2024-03-23T01:45:29;9.20;100.00
83466;DHT22;73393;51.946;20.140;2024-03-23T01:47:55;9.20;100.00
83466;DHT22;73393;51.946;20.140;2024-03-23T01:50:21;9.20;100.00
83466;DHT22;73393;51.946;20.140;2024-03-23T01:52:47;9.20;100.00
83466;DHT22;73393;51.946;20.140;2024-03-23T01:55:13;9.10;100.00
83466;DHT22;73393;51.946;20.140;2024-03-23T01:57:39;9.10;100.00
83466;DHT22;73393;51.946;20.140;2024-03-23T02:00:05;9.20;100.00
83466;DHT22;73393;51.946;20.140;2024-03-23T02:02:31;9.10;100.00
83466;DHT22;73393;51.946;20.140;2024-03-23T02:04:57;9.10;100.00
83466;DHT22;73393;51.946;20.140;2024-03-23T02:07:23;9.10;100.00
83466;DHT22;73393;51.946;20.140;2024-03-23T02:09:53;9.00;100.00
83466;DHT22;73393;51.946;20.140;2024-03-23T02:12:20;9.00;100.00
83466;DHT22;73393;51.946;20.140;2024-03-23T02:14:46;9.00;100.00
83466;DHT22;73393;51.946;20.140;2024-03-23T02:17:12;8.90;100.00
83466;DHT22;73393;51.946;20.140;2024-03-23T02:19:38;8.90;100.00
83466;DHT22;73393;51.946;20.140;2024-03-23T02:22:04;9.00;100.00
83466;DHT22;73393;51.946;20.140;2024-03-23T02:24:30;9.10;100.00
83466;DHT22;73393;51.946;20.140;2024-03-23T02:26:56;9.00;100.00
83466;DHT22;73393;51.946;20.140;2024-03-23T02:29:22;9.00;100.00
83466;DHT22;73393;51.946;20.140;2024-03-23T02:31:47;8.90;100.00
83466;DHT22;73393;51.946;20.140;2024-03-23T02:34:13;9.00;100.00
83466;DHT22;73393;51.946;20.140;2024-03-23T02:36:39;8.90;100.00
83466;DHT22;73393;51.946;20.140;2024-03-23T02:39:04;8.90;100.00
83466;DHT22;73393;51.946;20.140;2024-03-23T02:41:30;9.00;100.00
83466;DHT22;73393;51.946;20.140;2024-03-23T02:43:56;8.90;100.00
83466;DHT22;73393;51.946;20.140;2024-03-23T02:46:21;8.90;100.00
83466;DHT22;73393;51.946;20.140;2024-03-23T02:48:49;8.90;100.00
83466;DHT22;73393;51.946;20.140;2024-03-23T02:51:14;9.00;100.00
83466;DHT22;73393;51.946;20.140;2024-03-23T02:53:40;9.00;100.00
83466;DHT22;73393;51.946;20.140;2024-03-23T02:56:06;9.00;100.00
83466;DHT22;73393;51.946;20.140;2024-03-23T02:58:32;8.90;100.00
83466;DHT22;73393;51.946;20.140;2024-03-23T03:00:58;8.90;100.00
83466;DHT22;73393;51.946;20.140;2024-03-23T03:03:24;9.00;100.00
83466;DHT22;73393;51.946;20.140;2024-03-23T03:05:59;8.90;100.00
83466;DHT22;73393;51.946;20.140;2024-03-23T03:08:24;9.00;100.00
83466;DHT22;73393;51.946;20.140;2024-03-23T03:10:50;9.00;100.00
83466;DHT22;73393;51.946;20.140;2024-03-23T03:13:15;9.00;100.00
83466;DHT22;73393;51.946;20.140;2024-03-23T03:15:42;9.00;100.00
83466;DHT22;73393;51.946;20.140;2024-03-23T03:18:08;9.00;100.00
83466;DHT22;73393;51.946;20.140;2024-03-23T03:20:34;9.00;100.00
83466;DHT22;73393;51.946;20.140;2024-03-23T03:23:00;9.00;100.00
83466;DHT22;73393;51.946;20.140;2024-03-23T03:25:25;9.00;100.00
83466;DHT22;73393;51.946;20.140;2024-03-23T03:27:51;8.90;100.00
83466;DHT22;73393;51.946;20.140;2024-03-23T03:30:16;8.90;100.00
83466;DHT22;73393;51.946;20.140;2024-03-23T03:32:42;8.90;100.00
83466;DHT22;73393;51.946;20.140;2024-03-23T03:35:08;8.90;100.00
83466;DHT22;73393;51.946;20.140;2024-03-23T03:37:34;8.90;100.00
83466;DHT22;73393;51.946;20.140;2024-03-23T03:39:59;9.00;100.00
83466;DHT22;73393;51.946;20.140;2024-03-23T03:42:25;8.90;100.00
83466;DHT22;73393;51.946;20.140;2024-03-23T03:44:51;9.00;100.00
83466;DHT22;73393;51.946;20.140;2024-03-23T03:47:17;9.00;100.00
83466;DHT22;73393;51.946;20.140;2024-03-23T03:49:43;9.00;100.00
83466;DHT22;73393;51.946;20.140;2024-03-23T03:52:09;9.10;100.00
83466;DHT22;73393;51.946;20.140;2024-03-23T03:54:34;9.10;100.00
83466;DHT22;73393;51.946;20.140;2024-03-23T03:57:00;9.10;100.00
83466;DHT22;73393;51.946;20.140;2024-03-23T03:59:26;9.00;100.00
83466;DHT22;73393;51.946;20.140;2024-03-23T04:01:51;9.10;100.00
83466;DHT22;73393;51.946;20.140;2024-03-23T04:04:17;9.00;100.00
83466;DHT22;73393;51.946;20.140;2024-03-23T04:06:43;9.10;100.00
83466;DHT22;73393;51.946;20.140;2024-03-23T04:09:09;9.20;100.00
83466;DHT22;73393;51.946;20.140;2024-03-23T04:11:35;9.20;100.00
83466;DHT22;73393;51.946;20.140;2024-03-23T04:14:01;9.20;100.00
83466;DHT22;73393;51.946;20.140;2024-03-23T04:16:34;9.20;100.00
83466;DHT22;73393;51.946;20.140;2024-03-23T04:19:00;9.30;100.00
83466;DHT22;73393;51.946;20.140;2024-03-23T04:21:25;9.30;100.00
83466;DHT22;73393;51.946;20.140;2024-03-23T04:23:51;9.30;100.00
83466;DHT22;73393;51.946;20.140;2024-03-23T04:26:17;9.30;100.00
83466;DHT22;73393;51.946;20.140;2024-03-23T04:28:42;9.30;100.00
83466;DHT22;73393;51.946;20.140;2024-03-23T04:31:08;9.30;100.00
83466;DHT22;73393;51.946;20.140;2024-03-23T04:33:34;9.30;100.00
83466;DHT22;73393;51.946;20.140;2024-03-23T04:36:00;9.40;100.00
83466;DHT22;73393;51.946;20.140;2024-03-23T04:38:25;9.30;100.00
83466;DHT22;73393;51.946;20.140;2024-03-23T04:40:58;9.40;100.00
83466;DHT22;73393;51.946;20.140;2024-03-23T04:43:26;9.40;100.00
83466;DHT22;73393;51.946;20.140;2024-03-23T04:45:52;9.40;100.00
83466;DHT22;73393;51.946;20.140;2024-03-23T04:48:22;9.40;100.00
83466;DHT22;73393;51.946;20.140;2024-03-23T04:50:48;9.30;100.00
83466;DHT22;73393;51.946;20.140;2024-03-23T04:53:15;9.40;100.00
83466;DHT22;73393;51.946;20.140;2024-03-23T04:55:42;9.30;100.00
83466;DHT22;73393;51.946;20.140;2024-03-23T04:58:07;9.40;100.00
83466;DHT22;73393;51.946;20.140;2024-03-23T05:00:33;9.40;100.00
83466;DHT22;73393;51.946;20.140;2024-03-23T05:02:58;9.40;100.00
83466;DHT22;73393;51.946;20.140;2024-03-23T05:05:24;9.40;100.00
83466;DHT22;73393;51.946;20.140;2024-03-23T05:07:50;9.50;100.00
83466;DHT22;73393;51.946;20.140;2024-03-23T05:10:15;9.50;100.00
83466;DHT22;73393;51.946;20.140;2024-03-23T05:12:41;9.60;100.00
83466;DHT22;73393;51.946;20.140;2024-03-23T05:15:07;9.60;100.00
83466;DHT22;73393;51.946;20.140;2024-03-23T05:17:33;9.50;100.00
83466;DHT22;73393;51.946;20.140;2024-03-23T05:19:59;9.60;100.00
83466;DHT22;73393;51.946;20.140;2024-03-23T05:22:25;9.60;100.00
83466;DHT22;73393;51.946;20.140;2024-03-23T05:24:52;9.70;100.00
83466;DHT22;73393;51.946;20.140;2024-03-23T05:27:18;9.60;100.00
83466;DHT22;73393;51.946;20.140;2024-03-23T05:29:44;9.70;100.00
83466;DHT22;73393;51.946;20.140;2024-03-23T05:32:09;9.70;100.00
83466;DHT22;73393;51.946;20.140;2024-03-23T05:34:35;9.60;100.00
83466;DHT22;73393;51.946;20.140;2024-03-23T05:37:00;9.60;100.00
83466;DHT22;73393;51.946;20.140;2024-03-23T05:39:26;9.60;100.00
83466;DHT22;73393;51.946;20.140;2024-03-23T05:41:51;9.70;100.00
83466;DHT22;73393;51.946;20.140;2024-03-23T05:44:17;9.70;100.00
83466;DHT22;73393;51.946;20.140;2024-03-23T05:46:43;9.70;100.00
83466;DHT22;73393;51.946;20.140;2024-03-23T05:49:13;9.70;100.00
83466;DHT22;73393;51.946;20.140;2024-03-23T05:51:39;9.70;100.00
83466;DHT22;73393;51.946;20.140;2024-03-23T05:54:05;9.70;100.00
83466;DHT22;73393;51.946;20.140;2024-03-23T05:56:31;9.70;100.00
83466;DHT22;73393;51.946;20.140;2024-03-23T05:58:58;9.70;100.00
83466;DHT22;73393;51.946;20.140;2024-03-23T06:01:23;9.70;100.00
83466;DHT22;73393;51.946;20.140;2024-03-23T06:03:49;9.80;100.00
83466;DHT22;73393;51.946;20.140;2024-03-23T06:06:14;9.90;100.00
83466;DHT22;73393;51.946;20.140;2024-03-23T06:08:40;10.00;100.00
83466;DHT22;73393;51.946;20.140;2024-03-23T06:11:06;10.00;100.00
83466;DHT22;73393;51.946;20.140;2024-03-23T06:13:32;10.10;100.00
83466;DHT22;73393;51.946;20.140;2024-03-23T06:15:59;10.20;100.00
83466;DHT22;73393;51.946;20.140;2024-03-23T06:18:25;10.30;100.00
83466;DHT22;73393;51.946;20.140;2024-03-23T06:20:50;10.40;100.00
83466;DHT22;73393;51.946;20.140;2024-03-23T06:23:16;10.40;100.00
83466;DHT22;73393;51.946;20.140;2024-03-23T06:25:45;10.40;99.60
83466;DHT22;73393;51.946;20.140;2024-03-23T06:28:11;10.50;99.30
83466;DHT22;73393;51.946;20.140;2024-03-23T06:30:36;10.50;99.20
83466;DHT22;73393;51.946;20.140;2024-03-23T06:33:02;10.50;98.60
83466;DHT22;73393;51.946;20.140;2024-03-23T06:35:27;10.40;98.30
83466;DHT22;73393;51.946;20.140;2024-03-23T06:37:53;10.40;98.00
83466;DHT22;73393;51.946;20.140;2024-03-23T06:40:19;10.40;97.80
83466;DHT22;73393;51.946;20.140;2024-03-23T06:42:45;10.30;97.90
83466;DHT22;73393;51.946;20.140;2024-03-23T06:45:10;10.40;98.10
83466;DHT22;73393;51.946;20.140;2024-03-23T06:47:36;10.30;98.00
83466;DHT22;73393;51.946;20.140;2024-03-23T06:50:03;10.30;98.50
83466;DHT22;73393;51.946;20.140;2024-03-23T06:52:29;10.40;98.40
83466;DHT22;73393;51.946;20.140;2024-03-23T06:54:55;10.40;98.10
83466;DHT22;73393;51.946;20.140;2024-03-23T06:57:20;10.50;98.10
83466;DHT22;73393;51.946;20.140;2024-03-23T06:59:46;10.60;97.80
83466;DHT22;73393;51.946;20.140;2024-03-23T07:02:12;10.70;97.80
83466;DHT22;73393;51.946;20.140;2024-03-23T07:04:37;10.80;97.90
83466;DHT22;73393;51.946;20.140;2024-03-23T07:07:04;10.90;97.10
83466;DHT22;73393;51.946;20.140;2024-03-23T07:09:30;11.00;96.60
83466;DHT22;73393;51.946;20.140;2024-03-23T07:11:56;11.10;95.70
83466;DHT22;73393;51.946;20.140;2024-03-23T07:14:22;11.20;95.40
83466;DHT22;73393;51.946;20.140;2024-03-23T07:16:48;11.30;95.30
83466;DHT22;73393;51.946;20.140;2024-03-23T07:19:17;11.40;95.00
83466;DHT22;73393;51.946;20.140;2024-03-23T07:21:44;11.60;94.50
83466;DHT22;73393;51.946;20.140;2024-03-23T07:24:10;11.60;93.10
83466;DHT22;73393;51.946;20.140;2024-03-23T07:26:36;11.70;93.40
83466;DHT22;73393;51.946;20.140;2024-03-23T07:29:01;11.70;92.40
83466;DHT22;73393;51.946;20.140;2024-03-23T07:31:27;11.90;92.10
83466;DHT22;73393;51.946;20.140;2024-03-23T07:33:53;11.90;91.60
83466;DHT22;73393;51.946;20.140;2024-03-23T07:36:19;11.90;91.00
83466;DHT22;73393;51.946;20.140;2024-03-23T07:38:44;11.90;91.80
83466;DHT22;73393;51.946;20.140;2024-03-23T07:41:20;11.90;91.40
83466;DHT22;73393;51.946;20.140;2024-03-23T07:43:47;12.00;91.10
83466;DHT22;73393;51.946;20.140;2024-03-23T07:46:13;11.90;90.10
83466;DHT22;73393;51.946;20.140;2024-03-23T07:48:39;11.60;91.50
83466;DHT22;73393;51.946;20.140;2024-03-23T07:53:35;11.90;91.80
83466;DHT22;73393;51.946;20.140;2024-03-23T07:56:01;11.90;90.70
83466;DHT22;73393;51.946;20.140;2024-03-23T07:58:27;11.90;90.90
83466;DHT22;73393;51.946;20.140;2024-03-23T08:00:54;11.90;90.20
83466;DHT22;73393;51.946;20.140;2024-03-23T08:03:20;12.00;91.20
83466;DHT22;73393;51.946;20.140;2024-03-23T08:05:45;11.90;91.00
83466;DHT22;73393;51.946;20.140;2024-03-23T08:08:11;11.80;90.50
83466;DHT22;73393;51.946;20.140;2024-03-23T08:13:14;11.80;93.50
83466;DHT22;73393;51.946;20.140;2024-03-23T08:15:39;12.00;93.50
83466;DHT22;73393;51.946;20.140;2024-03-23T08:18:05;12.00;91.80
83466;DHT22;73393;51.946;20.140;2024-03-23T08:20:30;12.00;90.70
83466;DHT22;73393;51.946;20.140;2024-03-23T08:22:56;12.10;91.10
83466;DHT22;73393;51.946;20.140;2024-03-23T08:25:21;12.20;89.50
83466;DHT22;73393;51.946;20.140;2024-03-23T08:27:47;12.20;90.80
83466;DHT22;73393;51.946;20.140;2024-03-23T08:30:13;12.40;89.90
83466;DHT22;73393;51.946;20.140;2024-03-23T08:32:39;12.40;88.70
83466;DHT22;73393;51.946;20.140;2024-03-23T08:35:05;12.60;87.10
83466;DHT22;73393;51.946;20.140;2024-03-23T08:37:30;12.70;87.00
83466;DHT22;73393;51.946;20.140;2024-03-23T08:39:56;12.80;87.00
83466;DHT22;73393;51.946;20.140;2024-03-23T08:42:23;12.90;85.00
83466;DHT22;73393;51.946;20.140;2024-03-23T08:44:49;13.20;86.30
83466;DHT22;73393;51.946;20.140;2024-03-23T08:47:15;13.50;83.80
83466;DHT22;73393;51.946;20.140;2024-03-23T08:49:41;13.90;83.00
83466;DHT22;73393;51.946;20.140;2024-03-23T08:52:07;14.20;81.10
83466;DHT22;73393;51.946;20.140;2024-03-23T08:54:33;14.40;79.20
83466;DHT22;73393;51.946;20.140;2024-03-23T08:57:00;14.50;77.70
83466;DHT22;73393;51.946;20.140;2024-03-23T08:59:25;14.50;76.90
83466;DHT22;73393;51.946;20.140;2024-03-23T09:01:52;14.30;78.00
83466;DHT22;73393;51.946;20.140;2024-03-23T09:04:18;14.40;78.60
83466;DHT22;73393;51.946;20.140;2024-03-23T09:06:44;14.40;79.00
83466;DHT22;73393;51.946;20.140;2024-03-23T09:09:12;14.50;78.40
83466;DHT22;73393;51.946;20.140;2024-03-23T09:11:39;14.50;77.80
83466;DHT22;73393;51.946;20.140;2024-03-23T09:14:04;14.70;76.50
83466;DHT22;73393;51.946;20.140;2024-03-23T09:16:30;14.70;77.30
83466;DHT22;73393;51.946;20.140;2024-03-23T09:18:55;14.70;76.20
83466;DHT22;73393;51.946;20.140;2024-03-23T09:21:21;14.60;75.80
83466;DHT22;73393;51.946;20.140;2024-03-23T09:23:47;14.40;77.90
83466;DHT22;73393;51.946;20.140;2024-03-23T09:26:12;14.40;78.60
83466;DHT22;73393;51.946;20.140;2024-03-23T09:28:38;14.30;78.50
83466;DHT22;73393;51.946;20.140;2024-03-23T09:31:05;14.20;78.30
83466;DHT22;73393;51.946;20.140;2024-03-23T09:33:31;14.30;78.00
83466;DHT22;73393;51.946;20.140;2024-03-23T09:35:57;14.30;79.10
83466;DHT22;73393;51.946;20.140;2024-03-23T09:38:23;14.30;77.40
83466;DHT22;73393;51.946;20.140;2024-03-23T09:40:52;14.30;77.40
83466;DHT22;73393;51.946;20.140;2024-03-23T09:43:20;14.30;76.70
83466;DHT22;73393;51.946;20.140;2024-03-23T09:45:46;14.30;77.40
83466;DHT22;73393;51.946;20.140;2024-03-23T09:48:12;14.30;77.00
83466;DHT22;73393;51.946;20.140;2024-03-23T09:50:43;14.30;74.90
83466;DHT22;73393;51.946;20.140;2024-03-23T09:53:11;14.40;76.20
83466;DHT22;73393;51.946;20.140;2024-03-23T09:55:38;14.50;76.70
83466;DHT22;73393;51.946;20.140;2024-03-23T09:58:04;14.60;76.60
83466;DHT22;73393;51.946;20.140;2024-03-23T10:00:34;14.70;75.50
83466;DHT22;73393;51.946;20.140;2024-03-23T10:03:00;14.70;74.80
83466;DHT22;73393;51.946;20.140;2024-03-23T10:05:29;14.80;75.20
83466;DHT22;73393;51.946;20.140;2024-03-23T10:07:58;14.80;73.10
83466;DHT22;73393;51.946;20.140;2024-03-23T10:10:25;14.80;72.80
83466;DHT22;73393;51.946;20.140;2024-03-23T10:12:51;14.90;71.80
83466;DHT22;73393;51.946;20.140;2024-03-23T10:15:24;14.80;70.60
83466;DHT22;73393;51.946;20.140;2024-03-23T10:17:50;14.90;72.60
83466;DHT22;73393;51.946;20.140;2024-03-23T10:20:23;14.90;73.70
83466;DHT22;73393;51.946;20.140;2024-03-23T10:22:50;15.00;75.60
83466;DHT22;73393;51.946;20.140;2024-03-23T10:25:17;14.90;73.80
83466;DHT22;73393;51.946;20.140;2024-03-23T10:27:42;15.00;75.60
83466;DHT22;73393;51.946;20.140;2024-03-23T10:30:12;15.10;76.00
83466;DHT22;73393;51.946;20.140;2024-03-23T10:32:38;15.20;74.10
83466;DHT22;73393;51.946;20.140;2024-03-23T10:35:20;15.20;72.40
83466;DHT22;73393;51.946;20.140;2024-03-23T10:37:49;15.30;72.60
83466;DHT22;73393;51.946;20.140;2024-03-23T10:40:17;15.30;72.60
83466;DHT22;73393;51.946;20.140;2024-03-23T10:42:44;15.30;71.40
83466;DHT22;73393;51.946;20.140;2024-03-23T10:45:10;15.40;71.30
83466;DHT22;73393;51.946;20.140;2024-03-23T10:47:37;15.40;71.20
83466;DHT22;73393;51.946;20.140;2024-03-23T10:50:04;15.50;70.30
83466;DHT22;73393;51.946;20.140;2024-03-23T10:52:34;15.50;70.50
83466;DHT22;73393;51.946;20.140;2024-03-23T10:55:04;15.60;71.10
83466;DHT22;73393;51.946;20.140;2024-03-23T10:57:36;15.80;72.30
83466;DHT22;73393;51.946;20.140;2024-03-23T11:00:04;15.90;68.10
83466;DHT22;73393;51.946;20.140;2024-03-23T11:02:29;15.90;68.40
83466;DHT22;73393;51.946;20.140;2024-03-23T11:04:55;16.00;66.80
83466;DHT22;73393;51.946;20.140;2024-03-23T11:09:50;16.00;66.60
83466;DHT22;73393;51.946;20.140;2024-03-23T11:14:50;16.10;66.90
83466;DHT22;73393;51.946;20.140;2024-03-23T11:17:20;16.20;67.70
83466;DHT22;73393;51.946;20.140;2024-03-23T11:25:22;16.40;64.70
83466;DHT22;73393;51.946;20.140;2024-03-23T11:27:49;16.60;62.50
83466;DHT22;73393;51.946;20.140;2024-03-23T11:30:19;16.80;62.40
83466;DHT22;73393;51.946;20.140;2024-03-23T11:32:47;16.90;62.00
83466;DHT22;73393;51.946;20.140;2024-03-23T11:35:33;17.00;62.10
83466;DHT22;73393;51.946;20.140;2024-03-23T11:38:05;17.20;61.20
83466;DHT22;73393;51.946;20.140;2024-03-23T11:40:32;17.40;59.10
83466;DHT22;73393;51.946;20.140;2024-03-23T11:43:00;17.40;59.10
83466;DHT22;73393;51.946;20.140;2024-03-23T11:45:26;17.40;58.20
83466;DHT22;73393;51.946;20.140;2024-03-23T11:50:31;17.30;58.00
83466;DHT22;73393;51.946;20.140;2024-03-23T11:53:23;17.10;58.60
83466;DHT22;73393;51.946;20.140;2024-03-23T11:55:49;17.00;59.60
83466;DHT22;73393;51.946;20.140;2024-03-23T11:58:16;17.00;58.10
83466;DHT22;73393;51.946;20.140;2024-03-23T12:00:48;17.00;59.00
83466;DHT22;73393;51.946;20.140;2024-03-23T12:03:16;17.10;59.20
83466;DHT22;73393;51.946;20.140;2024-03-23T12:05:42;17.20;58.90
83466;DHT22;73393;51.946;20.140;2024-03-23T12:08:16;17.00;57.50
83466;DHT22;73393;51.946;20.140;2024-03-23T12:10:48;17.00;58.10
83466;DHT22;73393;51.946;20.140;2024-03-23T12:13:18;16.90;59.70
83466;DHT22;73393;51.946;20.140;2024-03-23T12:15:45;16.70;60.70
83466;DHT22;73393;51.946;20.140;2024-03-23T12:18:11;16.70;60.50
83466;DHT22;73393;51.946;20.140;2024-03-23T12:20:37;16.60;60.60
83466;DHT22;73393;51.946;20.140;2024-03-23T12:23:07;16.50;60.20
83466;DHT22;73393;51.946;20.140;2024-03-23T12:25:34;16.50;62.20
83466;DHT22;73393;51.946;20.140;2024-03-23T12:28:00;16.60;62.10
83466;DHT22;73393;51.946;20.140;2024-03-23T12:30:25;16.70;63.10
83466;DHT22;73393;51.946;20.140;2024-03-23T12:32:51;16.80;61.70
83466;DHT22;73393;51.946;20.140;2024-03-23T12:35:17;16.70;61.10
83466;DHT22;73393;51.946;20.140;2024-03-23T12:37:43;16.70;61.60
83466;DHT22;73393;51.946;20.140;2024-03-23T12:40:09;16.70;61.70
83466;DHT22;73393;51.946;20.140;2024-03-23T12:42:35;16.80;63.00
83466;DHT22;73393;51.946;20.140;2024-03-23T12:45:01;16.90;61.80
83466;DHT22;73393;51.946;20.140;2024-03-23T12:47:26;17.20;61.10
83466;DHT22;73393;51.946;20.140;2024-03-23T12:49:52;17.40;59.00
83466;DHT22;73393;51.946;20.140;2024-03-23T12:52:18;17.50;59.00
83466;DHT22;73393;51.946;20.140;2024-03-23T12:54:45;17.50;58.60
83466;DHT22;73393;51.946;20.140;2024-03-23T12:57:10;17.30;57.20
83466;DHT22;73393;51.946;20.140;2024-03-23T12:59:36;17.20;58.40
83466;DHT22;73393;51.946;20.140;2024-03-23T13:02:03;17.10;59.60
83466;DHT22;73393;51.946;20.140;2024-03-23T13:04:29;17.00;59.80
83466;DHT22;73393;51.946;20.140;2024-03-23T13:06:54;17.00;59.60
83466;DHT22;73393;51.946;20.140;2024-03-23T13:09:20;16.90;60.80
83466;DHT22;73393;51.946;20.140;2024-03-23T13:11:45;16.80;61.80
83466;DHT22;73393;51.946;20.140;2024-03-23T13:14:11;16.70;61.60
83466;DHT22;73393;51.946;20.140;2024-03-23T13:16:37;16.70;63.30
83466;DHT22;73393;51.946;20.140;2024-03-23T13:19:02;16.60;62.60
83466;DHT22;73393;51.946;20.140;2024-03-23T13:21:28;16.50;63.40
83466;DHT22;73393;51.946;20.140;2024-03-23T13:23:54;16.50;64.50
83466;DHT22;73393;51.946;20.140;2024-03-23T13:26:20;16.40;64.10
83466;DHT22;73393;51.946;20.140;2024-03-23T13:28:46;16.30;63.00
83466;DHT22;73393;51.946;20.140;2024-03-23T13:31:11;16.20;63.50
83466;DHT22;73393;51.946;20.140;2024-03-23T13:33:37;16.10;61.80
83466;DHT22;73393;51.946;20.140;2024-03-23T13:36:03;16.00;63.40
83466;DHT22;73393;51.946;20.140;2024-03-23T13:38:28;16.00;62.90
83466;DHT22;73393;51.946;20.140;2024-03-23T13:40:55;15.90;62.50
83466;DHT22;73393;51.946;20.140;2024-03-23T13:43:21;15.80;63.40
83466;DHT22;73393;51.946;20.140;2024-03-23T13:45:49;15.60;64.20
83466;DHT22;73393;51.946;20.140;2024-03-23T13:48:34;15.60;64.40
83466;DHT22;73393;51.946;20.140;2024-03-23T13:51:01;15.50;65.40
83466;DHT22;73393;51.946;20.140;2024-03-23T13:53:28;15.50;65.80
83466;DHT22;73393;51.946;20.140;2024-03-23T13:55:53;15.60;66.60
83466;DHT22;73393;51.946;20.140;2024-03-23T13:58:19;15.50;65.90
83466;DHT22;73393;51.946;20.140;2024-03-23T14:00:46;15.50;65.50
83466;DHT22;73393;51.946;20.140;2024-03-23T14:03:12;15.50;66.30
83466;DHT22;73393;51.946;20.140;2024-03-23T14:05:39;15.60;66.20
83466;DHT22;73393;51.946;20.140;2024-03-23T14:08:08;15.60;66.00
83466;DHT22;73393;51.946;20.140;2024-03-23T14:10:34;15.60;65.40
83466;DHT22;73393;51.946;20.140;2024-03-23T14:13:01;15.60;65.60
83466;DHT22;73393;51.946;20.140;2024-03-23T14:15:27;15.60;66.20
83466;DHT22;73393;51.946;20.140;2024-03-23T14:17:53;15.50;66.70
83466;DHT22;73393;51.946;20.140;2024-03-23T14:20:20;15.40;66.10
83466;DHT22;73393;51.946;20.140;2024-03-23T14:22:46;15.20;66.90
83466;DHT22;73393;51.946;20.140;2024-03-23T14:25:12;15.10;67.60
83466;DHT22;73393;51.946;20.140;2024-03-23T14:27:37;14.70;69.50
83466;DHT22;73393;51.946;20.140;2024-03-23T14:30:04;14.20;76.40
83466;DHT22;73393;51.946;20.140;2024-03-23T14:32:32;13.30;82.30
83466;DHT22;73393;51.946;20.140;2024-03-23T14:35:06;12.70;84.70
83466;DHT22;73393;51.946;20.140;2024-03-23T14:37:39;12.40;87.40
83466;DHT22;73393;51.946;20.140;2024-03-23T14:40:05;12.30;89.30
83466;DHT22;73393;51.946;20.140;2024-03-23T14:42:32;12.10;91.40
83466;DHT22;73393;51.946;20.140;2024-03-23T14:44:58;12.10;93.10
83466;DHT22;73393;51.946;20.140;2024-03-23T14:47:24;12.00;95.70
83466;DHT22;73393;51.946;20.140;2024-03-23T14:49:49;11.80;96.50
83466;DHT22;73393;51.946;20.140;2024-03-23T14:52:19;11.70;98.30
83466;DHT22;73393;51.946;20.140;2024-03-23T14:54:45;11.70;99.20
83466;DHT22;73393;51.946;20.140;2024-03-23T14:57:11;11.80;99.20
83466;DHT22;73393;51.946;20.140;2024-03-23T14:59:37;11.90;98.70
83466;DHT22;73393;51.946;20.140;2024-03-23T15:02:09;11.90;98.80
83466;DHT22;73393;51.946;20.140;2024-03-23T15:04:35;12.00;98.80
83466;DHT22;73393;51.946;20.140;2024-03-23T15:07:01;12.00;98.50
83466;DHT22;73393;51.946;20.140;2024-03-23T15:09:32;11.90;98.30
83466;DHT22;73393;51.946;20.140;2024-03-23T15:11:58;11.90;97.50
83466;DHT22;73393;51.946;20.140;2024-03-23T15:14:23;11.80;97.50
83466;DHT22;73393;51.946;20.140;2024-03-23T15:16:49;11.80;97.60
83466;DHT22;73393;51.946;20.140;2024-03-23T15:19:16;11.70;97.70
83466;DHT22;73393;51.946;20.140;2024-03-23T15:21:43;11.70;97.50
83466;DHT22;73393;51.946;20.140;2024-03-23T15:24:09;11.70;97.60
83466;DHT22;73393;51.946;20.140;2024-03-23T15:26:37;11.60;97.60
83466;DHT22;73393;51.946;20.140;2024-03-23T15:29:02;11.50;97.70
83466;DHT22;73393;51.946;20.140;2024-03-23T15:31:28;11.50;98.30
83466;DHT22;73393;51.946;20.140;2024-03-23T15:33:55;11.50;98.70
83466;DHT22;73393;51.946;20.140;2024-03-23T15:36:20;11.50;98.70
83466;DHT22;73393;51.946;20.140;2024-03-23T15:38:46;11.50;98.90
83466;DHT22;73393;51.946;20.140;2024-03-23T15:41:14;11.40;99.60
83466;DHT22;73393;51.946;20.140;2024-03-23T15:43:40;11.40;99.70
83466;DHT22;73393;51.946;20.140;2024-03-23T15:46:07;11.40;99.60
83466;DHT22;73393;51.946;20.140;2024-03-23T15:48:33;11.50;99.30
83466;DHT22;73393;51.946;20.140;2024-03-23T15:51:04;11.50;98.90
83466;DHT22;73393;51.946;20.140;2024-03-23T15:53:30;11.50;98.60
83466;DHT22;73393;51.946;20.140;2024-03-23T15:56:00;11.30;98.60
83466;DHT22;73393;51.946;20.140;2024-03-23T15:58:27;11.30;99.20
83466;DHT22;73393;51.946;20.140;2024-03-23T16:01:03;11.30;99.20
83466;DHT22;73393;51.946;20.140;2024-03-23T16:03:29;11.20;99.20
83466;DHT22;73393;51.946;20.140;2024-03-23T16:06:02;11.20;99.60
83466;DHT22;73393;51.946;20.140;2024-03-23T16:08:29;11.10;99.90
83466;DHT22;73393;51.946;20.140;2024-03-23T16:11:00;11.10;100.00
83466;DHT22;73393;51.946;20.140;2024-03-23T16:13:26;11.00;100.00
83466;DHT22;73393;51.946;20.140;2024-03-23T16:16:04;11.00;100.00
83466;DHT22;73393;51.946;20.140;2024-03-23T16:18:35;10.90;100.00
83466;DHT22;73393;51.946;20.140;2024-03-23T16:21:03;10.90;100.00
83466;DHT22;73393;51.946;20.140;2024-03-23T16:23:31;10.90;100.00